sensor_id;sensor_type;location;lat;lon;timestamp;P1;durP1;ratioP1;P2;durP2;ratioP2
11646;SDS011;5880;52.342;9.662;2023-06-14T00:01:24;2.95;;;2.20;;
11646;SDS011;5880;52.342;9.662;2023-06-14T00:03:50;2.85;;;2.00;;
11646;SDS011;5880;52.342;9.662;2023-06-14T00:06:15;2.08;;;1.92;;
11646;SDS011;5880;52.342;9.662;2023-06-14T00:08:42;2.25;;;2.05;;
11646;SDS011;5880;52.342;9.662;2023-06-14T00:11:08;2.30;;;2.10;;
11646;SDS011;5880;52.342;9.662;2023-06-14T00:13:34;3.58;;;2.40;;
11646;SDS011;5880;52.342;9.662;2023-06-14T00:15:59;4.07;;;2.20;;
11646;SDS011;5880;52.342;9.662;2023-06-14T00:18:25;4.22;;;2.30;;
11646;SDS011;5880;52.342;9.662;2023-06-14T00:20:54;2.80;;;2.30;;
11646;SDS011;5880;52.342;9.662;2023-06-14T00:23:20;2.30;;;2.10;;
11646;SDS011;5880;52.342;9.662;2023-06-14T00:25:46;3.38;;;2.10;;
11646;SDS011;5880;52.342;9.662;2023-06-14T00:28:12;2.03;;;1.90;;
11646;SDS011;5880;52.342;9.662;2023-06-14T00:30:39;2.10;;;1.90;;
11646;SDS011;5880;52.342;9.662;2023-06-14T00:33:04;2.40;;;1.90;;
11646;SDS011;5880;52.342;9.662;2023-06-14T00:35:30;2.10;;;1.90;;
11646;SDS011;5880;52.342;9.662;2023-06-14T00:37:56;2.50;;;2.30;;
11646;SDS011;5880;52.342;9.662;2023-06-14T00:40:22;2.30;;;2.10;;
11646;SDS011;5880;52.342;9.662;2023-06-14T00:42:48;3.17;;;1.90;;
11646;SDS011;5880;52.342;9.662;2023-06-14T00:45:14;2.05;;;1.85;;
11646;SDS011;5880;52.342;9.662;2023-06-14T00:47:40;2.58;;;2.20;;
11646;SDS011;5880;52.342;9.662;2023-06-14T00:50:08;6.22;;;2.10;;
11646;SDS011;5880;52.342;9.662;2023-06-14T00:52:35;2.10;;;1.90;;
11646;SDS011;5880;52.342;9.662;2023-06-14T00:55:01;2.20;;;2.00;;
11646;SDS011;5880;52.342;9.662;2023-06-14T00:57:27;2.47;;;1.90;;
11646;SDS011;5880;52.342;9.662;2023-06-14T00:59:54;2.63;;;1.90;;
11646;SDS011;5880;52.342;9.662;2023-06-14T01:02:20;2.25;;;2.05;;
11646;SDS011;5880;52.342;9.662;2023-06-14T01:04:47;3.53;;;2.10;;
11646;SDS011;5880;52.342;9.662;2023-06-14T01:13:34;4.20;;;2.25;;
11646;SDS011;5880;52.342;9.662;2023-06-14T01:16:03;2.33;;;2.00;;
11646;SDS011;5880;52.342;9.662;2023-06-14T01:18:31;2.23;;;1.80;;
11646;SDS011;5880;52.342;9.662;2023-06-14T01:20:58;2.10;;;1.90;;
11646;SDS011;5880;52.342;9.662;2023-06-14T01:23:24;1.88;;;1.73;;
11646;SDS011;5880;52.342;9.662;2023-06-14T01:25:57;2.20;;;2.00;;
11646;SDS011;5880;52.342;9.662;2023-06-14T01:28:24;2.20;;;2.00;;
11646;SDS011;5880;52.342;9.662;2023-06-14T01:30:56;3.30;;;2.00;;
11646;SDS011;5880;52.342;9.662;2023-06-14T01:33:29;2.33;;;1.83;;
11646;SDS011;5880;52.342;9.662;2023-06-14T01:35:57;2.83;;;2.03;;
11646;SDS011;5880;52.342;9.662;2023-06-14T01:38:24;2.50;;;1.87;;
11646;SDS011;5880;52.342;9.662;2023-06-14T01:40:52;2.28;;;2.00;;
11646;SDS011;5880;52.342;9.662;2023-06-14T01:43:21;2.40;;;2.20;;
11646;SDS011;5880;52.342;9.662;2023-06-14T01:45:49;2.88;;;2.20;;
11646;SDS011;5880;52.342;9.662;2023-06-14T01:48:18;2.20;;;2.00;;
11646;SDS011;5880;52.342;9.662;2023-06-14T01:50:45;2.67;;;2.10;;
11646;SDS011;5880;52.342;9.662;2023-06-14T01:53:10;2.53;;;1.97;;
11646;SDS011;5880;52.342;9.662;2023-06-14T01:55:36;2.37;;;1.80;;
11646;SDS011;5880;52.342;9.662;2023-06-14T01:58:05;3.00;;;1.87;;
11646;SDS011;5880;52.342;9.662;2023-06-14T02:00:31;2.20;;;1.77;;
11646;SDS011;5880;52.342;9.662;2023-06-14T02:02:57;2.10;;;1.90;;
11646;SDS011;5880;52.342;9.662;2023-06-14T02:05:23;2.20;;;2.00;;
11646;SDS011;5880;52.342;9.662;2023-06-14T02:07:49;2.30;;;2.03;;
11646;SDS011;5880;52.342;9.662;2023-06-14T02:10:15;3.13;;;2.10;;
11646;SDS011;5880;52.342;9.662;2023-06-14T02:12:42;2.10;;;1.90;;
11646;SDS011;5880;52.342;9.662;2023-06-14T02:15:08;2.03;;;1.93;;
11646;SDS011;5880;52.342;9.662;2023-06-14T02:17:42;7.20;;;2.07;;
11646;SDS011;5880;52.342;9.662;2023-06-14T02:20:17;2.10;;;1.90;;
11646;SDS011;5880;52.342;9.662;2023-06-14T02:22:42;2.73;;;2.00;;
11646;SDS011;5880;52.342;9.662;2023-06-14T02:25:09;1.87;;;1.73;;
11646;SDS011;5880;52.342;9.662;2023-06-14T02:27:35;1.70;;;1.60;;
11646;SDS011;5880;52.342;9.662;2023-06-14T02:30:00;1.97;;;1.83;;
11646;SDS011;5880;52.342;9.662;2023-06-14T02:32:27;1.93;;;1.83;;
11646;SDS011;5880;52.342;9.662;2023-06-14T02:34:53;2.90;;;1.80;;
11646;SDS011;5880;52.342;9.662;2023-06-14T02:37:19;2.37;;;1.93;;
11646;SDS011;5880;52.342;9.662;2023-06-14T02:39:45;3.23;;;2.10;;
11646;SDS011;5880;52.342;9.662;2023-06-14T02:42:11;1.90;;;1.77;;
11646;SDS011;5880;52.342;9.662;2023-06-14T02:44:37;1.73;;;1.60;;
11646;SDS011;5880;52.342;9.662;2023-06-14T02:47:03;2.00;;;1.80;;
11646;SDS011;5880;52.342;9.662;2023-06-14T02:49:29;4.17;;;1.70;;
11646;SDS011;5880;52.342;9.662;2023-06-14T02:51:56;1.83;;;1.63;;
11646;SDS011;5880;52.342;9.662;2023-06-14T02:54:22;2.57;;;1.70;;
11646;SDS011;5880;52.342;9.662;2023-06-14T02:56:47;3.20;;;1.87;;
11646;SDS011;5880;52.342;9.662;2023-06-14T02:59:13;1.80;;;1.70;;
11646;SDS011;5880;52.342;9.662;2023-06-14T03:01:40;2.00;;;1.80;;
11646;SDS011;5880;52.342;9.662;2023-06-14T03:04:09;3.30;;;1.90;;
11646;SDS011;5880;52.342;9.662;2023-06-14T03:06:35;2.73;;;1.73;;
11646;SDS011;5880;52.342;9.662;2023-06-14T03:09:02;2.17;;;1.97;;
11646;SDS011;5880;52.342;9.662;2023-06-14T03:11:30;3.03;;;1.90;;
11646;SDS011;5880;52.342;9.662;2023-06-14T03:13:56;2.80;;;1.80;;
11646;SDS011;5880;52.342;9.662;2023-06-14T03:16:22;3.43;;;2.27;;
11646;SDS011;5880;52.342;9.662;2023-06-14T03:18:52;2.23;;;2.03;;
11646;SDS011;5880;52.342;9.662;2023-06-14T03:21:18;2.90;;;2.37;;
11646;SDS011;5880;52.342;9.662;2023-06-14T03:23:46;2.73;;;2.00;;
11646;SDS011;5880;52.342;9.662;2023-06-14T03:26:13;2.43;;;2.10;;
11646;SDS011;5880;52.342;9.662;2023-06-14T03:28:42;2.13;;;1.93;;
11646;SDS011;5880;52.342;9.662;2023-06-14T03:31:12;2.47;;;2.10;;
11646;SDS011;5880;52.342;9.662;2023-06-14T03:33:38;1.97;;;1.83;;
11646;SDS011;5880;52.342;9.662;2023-06-14T03:36:05;2.00;;;1.80;;
11646;SDS011;5880;52.342;9.662;2023-06-14T03:38:34;2.20;;;2.00;;
11646;SDS011;5880;52.342;9.662;2023-06-14T03:41:00;2.13;;;1.93;;
11646;SDS011;5880;52.342;9.662;2023-06-14T03:43:26;2.60;;;2.10;;
11646;SDS011;5880;52.342;9.662;2023-06-14T03:45:52;2.30;;;1.90;;
11646;SDS011;5880;52.342;9.662;2023-06-14T03:48:18;2.93;;;2.20;;
11646;SDS011;5880;52.342;9.662;2023-06-14T03:50:43;3.40;;;2.07;;
11646;SDS011;5880;52.342;9.662;2023-06-14T03:53:09;5.97;;;2.20;;
11646;SDS011;5880;52.342;9.662;2023-06-14T03:55:35;3.23;;;2.17;;
11646;SDS011;5880;52.342;9.662;2023-06-14T03:58:02;4.57;;;2.03;;
11646;SDS011;5880;52.342;9.662;2023-06-14T04:00:28;2.30;;;2.10;;
11646;SDS011;5880;52.342;9.662;2023-06-14T04:02:55;2.80;;;2.00;;
11646;SDS011;5880;52.342;9.662;2023-06-14T04:05:20;3.50;;;1.83;;
11646;SDS011;5880;52.342;9.662;2023-06-14T04:07:46;3.70;;;2.10;;
11646;SDS011;5880;52.342;9.662;2023-06-14T04:10:13;2.67;;;2.00;;
11646;SDS011;5880;52.342;9.662;2023-06-14T04:12:40;2.93;;;1.83;;
11646;SDS011;5880;52.342;9.662;2023-06-14T04:15:06;2.37;;;2.00;;
11646;SDS011;5880;52.342;9.662;2023-06-14T04:17:33;2.73;;;2.30;;
11646;SDS011;5880;52.342;9.662;2023-06-14T04:19:59;2.17;;;1.97;;
11646;SDS011;5880;52.342;9.662;2023-06-14T04:22:26;2.03;;;1.83;;
11646;SDS011;5880;52.342;9.662;2023-06-14T04:24:55;2.97;;;2.23;;
11646;SDS011;5880;52.342;9.662;2023-06-14T04:27:22;4.43;;;2.07;;
11646;SDS011;5880;52.342;9.662;2023-06-14T04:29:53;2.40;;;2.10;;
11646;SDS011;5880;52.342;9.662;2023-06-14T04:32:27;2.20;;;2.00;;
11646;SDS011;5880;52.342;9.662;2023-06-14T04:34:54;3.27;;;2.10;;
11646;SDS011;5880;52.342;9.662;2023-06-14T04:37:22;2.80;;;2.20;;
11646;SDS011;5880;52.342;9.662;2023-06-14T04:39:48;2.90;;;2.17;;
11646;SDS011;5880;52.342;9.662;2023-06-14T04:42:15;3.13;;;2.30;;
11646;SDS011;5880;52.342;9.662;2023-06-14T04:44:42;2.00;;;1.80;;
11646;SDS011;5880;52.342;9.662;2023-06-14T04:47:09;1.97;;;1.80;;
11646;SDS011;5880;52.342;9.662;2023-06-14T04:49:37;3.05;;;2.10;;
11646;SDS011;5880;52.342;9.662;2023-06-14T04:52:05;2.50;;;2.10;;
11646;SDS011;5880;52.342;9.662;2023-06-14T04:54:31;2.67;;;2.13;;
11646;SDS011;5880;52.342;9.662;2023-06-14T04:56:58;2.40;;;2.20;;
11646;SDS011;5880;52.342;9.662;2023-06-14T04:59:24;2.15;;;1.95;;
11646;SDS011;5880;52.342;9.662;2023-06-14T05:01:50;2.63;;;1.85;;
11646;SDS011;5880;52.342;9.662;2023-06-14T05:04:18;2.13;;;1.90;;
11646;SDS011;5880;52.342;9.662;2023-06-14T05:06:44;2.20;;;1.90;;
11646;SDS011;5880;52.342;9.662;2023-06-14T05:09:13;1.92;;;1.83;;
11646;SDS011;5880;52.342;9.662;2023-06-14T05:11:40;3.30;;;1.63;;
11646;SDS011;5880;52.342;9.662;2023-06-14T05:14:10;3.10;;;1.80;;
11646;SDS011;5880;52.342;9.662;2023-06-14T05:16:36;3.92;;;1.92;;
11646;SDS011;5880;52.342;9.662;2023-06-14T05:19:02;2.63;;;1.90;;
11646;SDS011;5880;52.342;9.662;2023-06-14T05:21:29;2.88;;;1.90;;
11646;SDS011;5880;52.342;9.662;2023-06-14T05:23:55;3.97;;;1.92;;
11646;SDS011;5880;52.342;9.662;2023-06-14T05:26:21;1.70;;;1.60;;
11646;SDS011;5880;52.342;9.662;2023-06-14T05:28:50;1.95;;;1.75;;
11646;SDS011;5880;52.342;9.662;2023-06-14T05:31:17;2.72;;;1.80;;
11646;SDS011;5880;52.342;9.662;2023-06-14T05:33:43;2.05;;;1.70;;
11646;SDS011;5880;52.342;9.662;2023-06-14T05:36:08;2.28;;;1.73;;
11646;SDS011;5880;52.342;9.662;2023-06-14T05:38:34;5.20;;;2.20;;
11646;SDS011;5880;52.342;9.662;2023-06-14T05:41:00;2.05;;;1.80;;
11646;SDS011;5880;52.342;9.662;2023-06-14T05:43:26;2.75;;;1.55;;
11646;SDS011;5880;52.342;9.662;2023-06-14T05:45:51;1.60;;;1.50;;
11646;SDS011;5880;52.342;9.662;2023-06-14T05:48:17;1.98;;;1.50;;
11646;SDS011;5880;52.342;9.662;2023-06-14T05:50:43;2.00;;;1.67;;
11646;SDS011;5880;52.342;9.662;2023-06-14T05:53:08;2.05;;;1.60;;
11646;SDS011;5880;52.342;9.662;2023-06-14T05:55:34;1.50;;;1.40;;
11646;SDS011;5880;52.342;9.662;2023-06-14T05:58:00;1.60;;;1.45;;
11646;SDS011;5880;52.342;9.662;2023-06-14T06:00:26;2.08;;;1.30;;
11646;SDS011;5880;52.342;9.662;2023-06-14T06:02:52;1.67;;;1.55;;
11646;SDS011;5880;52.342;9.662;2023-06-14T06:05:18;2.40;;;1.40;;
11646;SDS011;5880;52.342;9.662;2023-06-14T06:07:44;3.85;;;2.60;;
11646;SDS011;5880;52.342;9.662;2023-06-14T06:10:10;5.28;;;3.17;;
11646;SDS011;5880;52.342;9.662;2023-06-14T06:12:36;5.10;;;3.35;;
11646;SDS011;5880;52.342;9.662;2023-06-14T06:15:02;5.88;;;3.70;;
11646;SDS011;5880;52.342;9.662;2023-06-14T06:17:29;3.17;;;2.50;;
11646;SDS011;5880;52.342;9.662;2023-06-14T06:19:55;11.00;;;6.32;;
11646;SDS011;5880;52.342;9.662;2023-06-14T06:22:21;7.07;;;4.25;;
11646;SDS011;5880;52.342;9.662;2023-06-14T06:24:46;3.75;;;2.58;;
11646;SDS011;5880;52.342;9.662;2023-06-14T06:27:12;1.92;;;1.73;;
11646;SDS011;5880;52.342;9.662;2023-06-14T06:29:38;1.70;;;1.60;;
11646;SDS011;5880;52.342;9.662;2023-06-14T06:32:07;1.98;;;1.60;;
11646;SDS011;5880;52.342;9.662;2023-06-14T06:34:32;1.50;;;1.40;;
11646;SDS011;5880;52.342;9.662;2023-06-14T06:36:58;2.28;;;1.40;;
11646;SDS011;5880;52.342;9.662;2023-06-14T06:39:24;1.67;;;1.50;;
11646;SDS011;5880;52.342;9.662;2023-06-14T06:41:50;2.45;;;2.15;;
11646;SDS011;5880;52.342;9.662;2023-06-14T06:44:16;8.70;;;7.20;;
11646;SDS011;5880;52.342;9.662;2023-06-14T06:46:43;4.15;;;3.58;;
11646;SDS011;5880;52.342;9.662;2023-06-14T06:49:09;4.57;;;3.20;;
11646;SDS011;5880;52.342;9.662;2023-06-14T06:51:36;3.08;;;2.63;;
11646;SDS011;5880;52.342;9.662;2023-06-14T06:54:02;15.70;;;8.90;;
11646;SDS011;5880;52.342;9.662;2023-06-14T06:56:28;7.13;;;4.78;;
11646;SDS011;5880;52.342;9.662;2023-06-14T06:58:54;4.32;;;2.60;;
11646;SDS011;5880;52.342;9.662;2023-06-14T07:01:19;2.63;;;1.83;;
11646;SDS011;5880;52.342;9.662;2023-06-14T07:03:45;1.70;;;1.60;;
11646;SDS011;5880;52.342;9.662;2023-06-14T07:06:11;3.05;;;1.52;;
11646;SDS011;5880;52.342;9.662;2023-06-14T07:08:37;1.70;;;1.60;;
11646;SDS011;5880;52.342;9.662;2023-06-14T07:11:06;1.70;;;1.52;;
11646;SDS011;5880;52.342;9.662;2023-06-14T07:13:32;1.45;;;1.30;;
11646;SDS011;5880;52.342;9.662;2023-06-14T07:15:58;1.73;;;1.55;;
11646;SDS011;5880;52.342;9.662;2023-06-14T07:18:27;1.80;;;1.67;;
11646;SDS011;5880;52.342;9.662;2023-06-14T07:20:54;1.90;;;1.45;;
11646;SDS011;5880;52.342;9.662;2023-06-14T07:23:21;2.00;;;1.58;;
11646;SDS011;5880;52.342;9.662;2023-06-14T07:25:46;1.60;;;1.50;;
11646;SDS011;5880;52.342;9.662;2023-06-14T07:28:12;1.65;;;1.55;;
11646;SDS011;5880;52.342;9.662;2023-06-14T07:30:37;1.70;;;1.60;;
11646;SDS011;5880;52.342;9.662;2023-06-14T07:33:03;2.85;;;1.77;;
11646;SDS011;5880;52.342;9.662;2023-06-14T07:35:29;1.70;;;1.60;;
11646;SDS011;5880;52.342;9.662;2023-06-14T07:37:54;1.60;;;1.50;;
11646;SDS011;5880;52.342;9.662;2023-06-14T07:40:20;1.73;;;1.63;;
11646;SDS011;5880;52.342;9.662;2023-06-14T07:42:46;2.10;;;1.70;;
11646;SDS011;5880;52.342;9.662;2023-06-14T07:45:13;1.90;;;1.80;;
11646;SDS011;5880;52.342;9.662;2023-06-14T07:47:39;1.67;;;1.58;;
11646;SDS011;5880;52.342;9.662;2023-06-14T07:50:05;2.53;;;1.85;;
11646;SDS011;5880;52.342;9.662;2023-06-14T07:52:31;2.03;;;1.80;;
11646;SDS011;5880;52.342;9.662;2023-06-14T07:54:57;2.42;;;1.80;;
11646;SDS011;5880;52.342;9.662;2023-06-14T07:57:23;1.55;;;1.45;;
11646;SDS011;5880;52.342;9.662;2023-06-14T07:59:48;1.67;;;1.58;;
11646;SDS011;5880;52.342;9.662;2023-06-14T08:02:15;2.42;;;1.52;;
11646;SDS011;5880;52.342;9.662;2023-06-14T08:04:40;1.52;;;1.42;;
11646;SDS011;5880;52.342;9.662;2023-06-14T08:07:07;2.85;;;1.58;;
11646;SDS011;5880;52.342;9.662;2023-06-14T08:09:33;1.63;;;1.52;;
11646;SDS011;5880;52.342;9.662;2023-06-14T08:12:02;1.65;;;1.55;;
11646;SDS011;5880;52.342;9.662;2023-06-14T08:14:32;1.42;;;1.33;;
11646;SDS011;5880;52.342;9.662;2023-06-14T08:16:58;1.63;;;1.52;;
11646;SDS011;5880;52.342;9.662;2023-06-14T08:19:24;1.40;;;1.30;;
11646;SDS011;5880;52.342;9.662;2023-06-14T08:21:50;1.45;;;1.35;;
11646;SDS011;5880;52.342;9.662;2023-06-14T08:24:16;1.67;;;1.48;;
11646;SDS011;5880;52.342;9.662;2023-06-14T08:26:43;2.22;;;1.63;;
11646;SDS011;5880;52.342;9.662;2023-06-14T08:29:09;1.80;;;1.70;;
11646;SDS011;5880;52.342;9.662;2023-06-14T08:31:35;2.08;;;1.88;;
11646;SDS011;5880;52.342;9.662;2023-06-14T08:34:00;1.48;;;1.38;;
11646;SDS011;5880;52.342;9.662;2023-06-14T08:36:26;2.17;;;1.70;;
11646;SDS011;5880;52.342;9.662;2023-06-14T08:38:52;1.75;;;1.65;;
11646;SDS011;5880;52.342;9.662;2023-06-14T08:41:21;1.52;;;1.42;;
11646;SDS011;5880;52.342;9.662;2023-06-14T08:43:51;1.92;;;1.83;;
11646;SDS011;5880;52.342;9.662;2023-06-14T08:46:17;1.60;;;1.50;;
11646;SDS011;5880;52.342;9.662;2023-06-14T08:48:50;1.70;;;1.50;;
11646;SDS011;5880;52.342;9.662;2023-06-14T08:51:20;1.70;;;1.60;;
11646;SDS011;5880;52.342;9.662;2023-06-14T08:53:52;1.60;;;1.50;;
11646;SDS011;5880;52.342;9.662;2023-06-14T08:56:26;2.45;;;1.60;;
11646;SDS011;5880;52.342;9.662;2023-06-14T08:58:53;1.77;;;1.67;;
11646;SDS011;5880;52.342;9.662;2023-06-14T09:01:21;2.03;;;1.65;;
11646;SDS011;5880;52.342;9.662;2023-06-14T09:03:48;3.40;;;1.63;;
11646;SDS011;5880;52.342;9.662;2023-06-14T09:06:15;1.50;;;1.40;;
11646;SDS011;5880;52.342;9.662;2023-06-14T09:08:44;1.67;;;1.58;;
11646;SDS011;5880;52.342;9.662;2023-06-14T09:11:13;1.75;;;1.65;;
11646;SDS011;5880;52.342;9.662;2023-06-14T09:13:44;2.03;;;1.63;;
11646;SDS011;5880;52.342;9.662;2023-06-14T09:16:14;2.22;;;1.90;;
11646;SDS011;5880;52.342;9.662;2023-06-14T09:18:44;2.47;;;1.73;;
11646;SDS011;5880;52.342;9.662;2023-06-14T09:21:15;1.75;;;1.65;;
11646;SDS011;5880;52.342;9.662;2023-06-14T09:23:43;1.85;;;1.70;;
11646;SDS011;5880;52.342;9.662;2023-06-14T09:26:11;3.38;;;1.80;;
11646;SDS011;5880;52.342;9.662;2023-06-14T09:28:45;1.65;;;1.55;;
11646;SDS011;5880;52.342;9.662;2023-06-14T09:31:14;2.28;;;1.75;;
11646;SDS011;5880;52.342;9.662;2023-06-14T09:33:44;2.13;;;1.80;;
11646;SDS011;5880;52.342;9.662;2023-06-14T09:36:31;2.17;;;1.80;;
11646;SDS011;5880;52.342;9.662;2023-06-14T09:39:03;1.92;;;1.60;;
11646;SDS011;5880;52.342;9.662;2023-06-14T09:41:33;2.42;;;1.80;;
11646;SDS011;5880;52.342;9.662;2023-06-14T09:44:06;1.60;;;1.50;;
11646;SDS011;5880;52.342;9.662;2023-06-14T09:46:34;2.13;;;1.48;;
11646;SDS011;5880;52.342;9.662;2023-06-14T09:49:01;2.25;;;1.90;;
11646;SDS011;5880;52.342;9.662;2023-06-14T09:51:28;1.52;;;1.42;;
11646;SDS011;5880;52.342;9.662;2023-06-14T09:54:01;1.70;;;1.60;;
11646;SDS011;5880;52.342;9.662;2023-06-14T09:56:37;1.88;;;1.77;;
11646;SDS011;5880;52.342;9.662;2023-06-14T09:59:06;1.80;;;1.63;;
11646;SDS011;5880;52.342;9.662;2023-06-14T10:01:35;1.88;;;1.77;;
11646;SDS011;5880;52.342;9.662;2023-06-14T10:04:07;2.10;;;1.83;;
11646;SDS011;5880;52.342;9.662;2023-06-14T10:06:36;1.80;;;1.70;;
11646;SDS011;5880;52.342;9.662;2023-06-14T10:09:05;1.95;;;1.67;;
11646;SDS011;5880;52.342;9.662;2023-06-14T10:11:34;2.38;;;1.80;;
11646;SDS011;5880;52.342;9.662;2023-06-14T10:14:02;2.10;;;1.50;;
11646;SDS011;5880;52.342;9.662;2023-06-14T10:19:40;1.95;;;1.65;;
11646;SDS011;5880;52.342;9.662;2023-06-14T10:22:26;1.60;;;1.50;;
11646;SDS011;5880;52.342;9.662;2023-06-14T10:25:01;1.90;;;1.45;;
11646;SDS011;5880;52.342;9.662;2023-06-14T10:27:32;3.08;;;1.90;;
11646;SDS011;5880;52.342;9.662;2023-06-14T10:32:26;2.45;;;2.00;;
11646;SDS011;5880;52.342;9.662;2023-06-14T10:34:56;2.17;;;2.00;;
11646;SDS011;5880;52.342;9.662;2023-06-14T10:37:25;1.88;;;1.70;;
11646;SDS011;5880;52.342;9.662;2023-06-14T10:39:51;1.88;;;1.77;;
11646;SDS011;5880;52.342;9.662;2023-06-14T10:42:18;2.00;;;1.90;;
11646;SDS011;5880;52.342;9.662;2023-06-14T10:44:54;1.85;;;1.75;;
11646;SDS011;5880;52.342;9.662;2023-06-14T10:47:24;2.20;;;2.00;;
11646;SDS011;5880;52.342;9.662;2023-06-14T10:50:09;2.13;;;1.90;;
11646;SDS011;5880;52.342;9.662;2023-06-14T10:52:38;2.03;;;1.92;;
11646;SDS011;5880;52.342;9.662;2023-06-14T10:55:17;2.28;;;1.92;;
11646;SDS011;5880;52.342;9.662;2023-06-14T10:57:47;2.88;;;2.10;;
11646;SDS011;5880;52.342;9.662;2023-06-14T11:00:21;2.40;;;2.20;;
11646;SDS011;5880;52.342;9.662;2023-06-14T11:06:20;2.53;;;2.05;;
11646;SDS011;5880;52.342;9.662;2023-06-14T11:11:45;2.40;;;2.20;;
11646;SDS011;5880;52.342;9.662;2023-06-14T11:14:13;2.05;;;1.95;;
11646;SDS011;5880;52.342;9.662;2023-06-14T11:16:38;3.25;;;1.80;;
11646;SDS011;5880;52.342;9.662;2023-06-14T11:19:04;2.75;;;2.47;;
11646;SDS011;5880;52.342;9.662;2023-06-14T11:21:33;2.25;;;2.00;;
11646;SDS011;5880;52.342;9.662;2023-06-14T11:23:59;2.33;;;2.13;;
11646;SDS011;5880;52.342;9.662;2023-06-14T11:26:29;2.38;;;2.17;;
11646;SDS011;5880;52.342;9.662;2023-06-14T11:28:58;2.38;;;2.17;;
11646;SDS011;5880;52.342;9.662;2023-06-14T11:31:26;2.30;;;2.10;;
11646;SDS011;5880;52.342;9.662;2023-06-14T11:33:53;2.55;;;2.20;;
11646;SDS011;5880;52.342;9.662;2023-06-14T11:36:23;4.07;;;2.42;;
11646;SDS011;5880;52.342;9.662;2023-06-14T11:39:03;3.17;;;2.05;;
11646;SDS011;5880;52.342;9.662;2023-06-14T11:41:35;3.67;;;2.42;;
11646;SDS011;5880;52.342;9.662;2023-06-14T11:44:09;2.80;;;2.22;;
11646;SDS011;5880;52.342;9.662;2023-06-14T11:46:36;2.70;;;2.17;;
11646;SDS011;5880;52.342;9.662;2023-06-14T11:49:02;3.58;;;2.20;;
11646;SDS011;5880;52.342;9.662;2023-06-14T11:51:32;2.63;;;2.03;;
11646;SDS011;5880;52.342;9.662;2023-06-14T11:53:59;3.05;;;2.28;;
11646;SDS011;5880;52.342;9.662;2023-06-14T11:56:28;2.30;;;2.10;;
11646;SDS011;5880;52.342;9.662;2023-06-14T11:58:56;1.98;;;1.80;;
11646;SDS011;5880;52.342;9.662;2023-06-14T12:01:23;3.15;;;1.95;;
11646;SDS011;5880;52.342;9.662;2023-06-14T12:03:49;2.10;;;2.00;;
11646;SDS011;5880;52.342;9.662;2023-06-14T12:06:16;3.03;;;1.98;;
11646;SDS011;5880;52.342;9.662;2023-06-14T12:08:57;2.25;;;2.00;;
11646;SDS011;5880;52.342;9.662;2023-06-14T12:11:23;2.35;;;2.15;;
11646;SDS011;5880;52.342;9.662;2023-06-14T12:13:53;3.05;;;1.98;;
11646;SDS011;5880;52.342;9.662;2023-06-14T12:16:18;3.17;;;2.20;;
11646;SDS011;5880;52.342;9.662;2023-06-14T12:18:44;3.65;;;2.00;;
11646;SDS011;5880;52.342;9.662;2023-06-14T12:21:10;3.15;;;2.08;;
11646;SDS011;5880;52.342;9.662;2023-06-14T12:23:46;2.85;;;2.05;;
11646;SDS011;5880;52.342;9.662;2023-06-14T12:26:16;2.60;;;2.40;;
11646;SDS011;5880;52.342;9.662;2023-06-14T12:28:44;3.10;;;2.33;;
11646;SDS011;5880;52.342;9.662;2023-06-14T12:31:12;2.80;;;2.40;;
11646;SDS011;5880;52.342;9.662;2023-06-14T12:33:40;6.07;;;2.50;;
11646;SDS011;5880;52.342;9.662;2023-06-14T12:36:06;2.33;;;2.13;;
11646;SDS011;5880;52.342;9.662;2023-06-14T12:38:33;2.45;;;2.20;;
11646;SDS011;5880;52.342;9.662;2023-06-14T12:40:59;2.85;;;2.65;;
11646;SDS011;5880;52.342;9.662;2023-06-14T12:43:25;3.13;;;2.40;;
11646;SDS011;5880;52.342;9.662;2023-06-14T12:45:51;3.55;;;2.55;;
11646;SDS011;5880;52.342;9.662;2023-06-14T12:48:17;2.33;;;2.13;;
11646;SDS011;5880;52.342;9.662;2023-06-14T12:50:43;3.33;;;2.42;;
11646;SDS011;5880;52.342;9.662;2023-06-14T12:53:08;3.20;;;2.90;;
11646;SDS011;5880;52.342;9.662;2023-06-14T12:55:34;5.32;;;2.50;;
11646;SDS011;5880;52.342;9.662;2023-06-14T12:58:00;2.90;;;2.60;;
11646;SDS011;5880;52.342;9.662;2023-06-14T13:00:25;3.75;;;2.67;;
11646;SDS011;5880;52.342;9.662;2023-06-14T13:02:51;3.60;;;2.90;;
11646;SDS011;5880;52.342;9.662;2023-06-14T13:05:18;2.75;;;2.55;;
11646;SDS011;5880;52.342;9.662;2023-06-14T13:07:44;3.10;;;2.80;;
11646;SDS011;5880;52.342;9.662;2023-06-14T13:10:09;4.18;;;2.88;;
11646;SDS011;5880;52.342;9.662;2023-06-14T13:12:36;3.30;;;2.50;;
11646;SDS011;5880;52.342;9.662;2023-06-14T13:15:01;3.92;;;2.90;;
11646;SDS011;5880;52.342;9.662;2023-06-14T13:17:27;2.70;;;2.50;;
11646;SDS011;5880;52.342;9.662;2023-06-14T13:19:53;3.10;;;2.80;;
11646;SDS011;5880;52.342;9.662;2023-06-14T13:22:19;2.90;;;2.67;;
11646;SDS011;5880;52.342;9.662;2023-06-14T13:24:44;4.32;;;2.42;;
11646;SDS011;5880;52.342;9.662;2023-06-14T13:27:10;3.35;;;2.97;;
11646;SDS011;5880;52.342;9.662;2023-06-14T13:29:36;2.90;;;2.67;;
11646;SDS011;5880;52.342;9.662;2023-06-14T13:32:02;3.90;;;2.88;;
11646;SDS011;5880;52.342;9.662;2023-06-14T13:34:29;3.20;;;2.90;;
11646;SDS011;5880;52.342;9.662;2023-06-14T13:36:55;4.40;;;2.90;;
11646;SDS011;5880;52.342;9.662;2023-06-14T13:39:23;2.80;;;2.60;;
11646;SDS011;5880;52.342;9.662;2023-06-14T13:41:50;3.35;;;2.85;;
11646;SDS011;5880;52.342;9.662;2023-06-14T13:44:15;2.80;;;2.60;;
11646;SDS011;5880;52.342;9.662;2023-06-14T13:46:43;3.78;;;3.00;;
11646;SDS011;5880;52.342;9.662;2023-06-14T13:49:09;3.00;;;2.78;;
11646;SDS011;5880;52.342;9.662;2023-06-14T13:51:37;3.13;;;2.83;;
11646;SDS011;5880;52.342;9.662;2023-06-14T13:54:02;3.30;;;2.65;;
11646;SDS011;5880;52.342;9.662;2023-06-14T13:56:28;2.90;;;2.70;;
11646;SDS011;5880;52.342;9.662;2023-06-14T13:58:54;3.25;;;2.95;;
11646;SDS011;5880;52.342;9.662;2023-06-14T14:01:21;2.92;;;2.58;;
11646;SDS011;5880;52.342;9.662;2023-06-14T14:03:47;3.28;;;2.90;;
11646;SDS011;5880;52.342;9.662;2023-06-14T14:06:14;3.03;;;2.80;;
11646;SDS011;5880;52.342;9.662;2023-06-14T14:08:41;3.53;;;3.22;;
11646;SDS011;5880;52.342;9.662;2023-06-14T14:11:08;3.10;;;2.72;;
11646;SDS011;5880;52.342;9.662;2023-06-14T14:13:34;3.92;;;3.03;;
11646;SDS011;5880;52.342;9.662;2023-06-14T14:16:01;5.47;;;2.83;;
11646;SDS011;5880;52.342;9.662;2023-06-14T14:18:28;2.92;;;2.72;;
11646;SDS011;5880;52.342;9.662;2023-06-14T14:20:54;3.17;;;2.88;;
11646;SDS011;5880;52.342;9.662;2023-06-14T14:23:20;3.33;;;3.03;;
11646;SDS011;5880;52.342;9.662;2023-06-14T14:25:46;3.60;;;2.83;;
11646;SDS011;5880;52.342;9.662;2023-06-14T14:28:12;6.35;;;3.88;;
11646;SDS011;5880;52.342;9.662;2023-06-14T14:30:41;4.28;;;2.92;;
11646;SDS011;5880;52.342;9.662;2023-06-14T14:33:07;10.65;;;5.15;;
11646;SDS011;5880;52.342;9.662;2023-06-14T14:35:33;10.50;;;5.85;;
11646;SDS011;5880;52.342;9.662;2023-06-14T14:37:59;11.30;;;5.53;;
11646;SDS011;5880;52.342;9.662;2023-06-14T14:40:25;9.48;;;5.40;;
11646;SDS011;5880;52.342;9.662;2023-06-14T14:42:51;4.25;;;3.60;;
11646;SDS011;5880;52.342;9.662;2023-06-14T14:45:17;4.00;;;3.13;;
11646;SDS011;5880;52.342;9.662;2023-06-14T14:47:42;16.42;;;6.93;;
11646;SDS011;5880;52.342;9.662;2023-06-14T14:50:08;7.78;;;5.03;;
11646;SDS011;5880;52.342;9.662;2023-06-14T14:52:34;5.70;;;3.85;;
11646;SDS011;5880;52.342;9.662;2023-06-14T14:55:00;5.05;;;3.25;;
11646;SDS011;5880;52.342;9.662;2023-06-14T14:57:27;2.90;;;2.53;;
11646;SDS011;5880;52.342;9.662;2023-06-14T14:59:53;2.95;;;2.65;;
11646;SDS011;5880;52.342;9.662;2023-06-14T15:02:18;3.10;;;2.60;;
11646;SDS011;5880;52.342;9.662;2023-06-14T15:04:44;2.65;;;2.45;;
11646;SDS011;5880;52.342;9.662;2023-06-14T15:07:10;4.88;;;2.70;;
11646;SDS011;5880;52.342;9.662;2023-06-14T15:09:36;3.38;;;2.55;;
11646;SDS011;5880;52.342;9.662;2023-06-14T15:12:03;2.67;;;2.47;;
11646;SDS011;5880;52.342;9.662;2023-06-14T15:14:29;3.95;;;2.88;;
11646;SDS011;5880;52.342;9.662;2023-06-14T15:16:55;2.58;;;2.38;;
11646;SDS011;5880;52.342;9.662;2023-06-14T15:19:22;5.10;;;2.90;;